sensor_id;sensor_type;location;lat;lon;timestamp;P1;durP1;ratioP1;P2;durP2;ratioP2
42700;SDS011;28316;49.504;8.526;2023-06-10T00:01:37;4.90;;;2.60;;
42700;SDS011;28316;49.504;8.526;2023-06-10T00:04:03;8.35;;;3.28;;
42700;SDS011;28316;49.504;8.526;2023-06-10T00:06:29;5.88;;;3.33;;
42700;SDS011;28316;49.504;8.526;2023-06-10T00:09:00;5.47;;;2.75;;
42700;SDS011;28316;49.504;8.526;2023-06-10T00:11:30;9.70;;;3.10;;
42700;SDS011;28316;49.504;8.526;2023-06-10T00:13:57;5.70;;;3.00;;
42700;SDS011;28316;49.504;8.526;2023-06-10T00:16:24;5.88;;;3.65;;
42700;SDS011;28316;49.504;8.526;2023-06-10T00:18:50;5.20;;;2.67;;
42700;SDS011;28316;49.504;8.526;2023-06-10T00:21:21;5.25;;;2.97;;
42700;SDS011;28316;49.504;8.526;2023-06-10T00:23:47;4.78;;;2.92;;
42700;SDS011;28316;49.504;8.526;2023-06-10T00:26:13;9.98;;;3.55;;
42700;SDS011;28316;49.504;8.526;2023-06-10T00:28:39;4.88;;;2.88;;
42700;SDS011;28316;49.504;8.526;2023-06-10T00:31:05;7.38;;;3.28;;
42700;SDS011;28316;49.504;8.526;2023-06-10T00:33:30;5.65;;;2.88;;
42700;SDS011;28316;49.504;8.526;2023-06-10T00:35:56;6.03;;;2.75;;
42700;SDS011;28316;49.504;8.526;2023-06-10T00:38:22;6.97;;;3.72;;
42700;SDS011;28316;49.504;8.526;2023-06-10T00:40:48;5.68;;;3.20;;
42700;SDS011;28316;49.504;8.526;2023-06-10T00:43:14;3.85;;;2.80;;
42700;SDS011;28316;49.504;8.526;2023-06-10T00:45:40;4.53;;;3.10;;
42700;SDS011;28316;49.504;8.526;2023-06-10T00:48:06;8.80;;;3.63;;
42700;SDS011;28316;49.504;8.526;2023-06-10T00:50:33;5.20;;;3.00;;
42700;SDS011;28316;49.504;8.526;2023-06-10T00:52:59;4.60;;;2.88;;
42700;SDS011;28316;49.504;8.526;2023-06-10T00:55:26;4.80;;;2.92;;
42700;SDS011;28316;49.504;8.526;2023-06-10T00:57:52;3.67;;;2.58;;
42700;SDS011;28316;49.504;8.526;2023-06-10T01:00:18;4.75;;;2.55;;
42700;SDS011;28316;49.504;8.526;2023-06-10T01:02:45;5.32;;;3.17;;
42700;SDS011;28316;49.504;8.526;2023-06-10T01:05:11;7.20;;;3.20;;
42700;SDS011;28316;49.504;8.526;2023-06-10T01:07:43;5.25;;;2.65;;
42700;SDS011;28316;49.504;8.526;2023-06-10T01:10:20;5.10;;;2.60;;
42700;SDS011;28316;49.504;8.526;2023-06-10T01:12:59;4.43;;;2.75;;
42700;SDS011;28316;49.504;8.526;2023-06-10T01:15:33;4.88;;;2.63;;
42700;SDS011;28316;49.504;8.526;2023-06-10T01:18:02;5.97;;;2.47;;
42700;SDS011;28316;49.504;8.526;2023-06-10T01:20:33;4.30;;;2.88;;
42700;SDS011;28316;49.504;8.526;2023-06-10T01:23:02;7.82;;;3.22;;
42700;SDS011;28316;49.504;8.526;2023-06-10T01:25:29;2.95;;;2.28;;
42700;SDS011;28316;49.504;8.526;2023-06-10T01:30:48;4.40;;;2.78;;
42700;SDS011;28316;49.504;8.526;2023-06-10T01:33:20;5.40;;;3.00;;
42700;SDS011;28316;49.504;8.526;2023-06-10T01:35:56;4.13;;;2.38;;
42700;SDS011;28316;49.504;8.526;2023-06-10T01:38:24;6.45;;;2.50;;
42700;SDS011;28316;49.504;8.526;2023-06-10T01:40:55;4.65;;;2.47;;
42700;SDS011;28316;49.504;8.526;2023-06-10T01:43:21;4.28;;;2.38;;
42700;SDS011;28316;49.504;8.526;2023-06-10T01:45:47;5.10;;;2.30;;
42700;SDS011;28316;49.504;8.526;2023-06-10T01:48:13;5.45;;;2.47;;
42700;SDS011;28316;49.504;8.526;2023-06-10T01:50:39;6.25;;;2.97;;
42700;SDS011;28316;49.504;8.526;2023-06-10T01:53:05;3.38;;;1.90;;
42700;SDS011;28316;49.504;8.526;2023-06-10T01:55:31;4.82;;;2.83;;
42700;SDS011;28316;49.504;8.526;2023-06-10T01:57:56;6.13;;;2.53;;
42700;SDS011;28316;49.504;8.526;2023-06-10T02:00:22;4.10;;;2.45;;
42700;SDS011;28316;49.504;8.526;2023-06-10T02:02:48;6.43;;;2.72;;
42700;SDS011;28316;49.504;8.526;2023-06-10T02:05:14;5.25;;;2.60;;
42700;SDS011;28316;49.504;8.526;2023-06-10T02:07:40;8.05;;;2.95;;
42700;SDS011;28316;49.504;8.526;2023-06-10T02:10:06;4.57;;;2.47;;
42700;SDS011;28316;49.504;8.526;2023-06-10T02:12:33;6.28;;;2.60;;
42700;SDS011;28316;49.504;8.526;2023-06-10T02:14:59;5.18;;;2.60;;
42700;SDS011;28316;49.504;8.526;2023-06-10T02:17:24;7.00;;;2.95;;
42700;SDS011;28316;49.504;8.526;2023-06-10T02:19:51;6.93;;;2.80;;
42700;SDS011;28316;49.504;8.526;2023-06-10T02:22:21;4.30;;;2.20;;
42700;SDS011;28316;49.504;8.526;2023-06-10T02:24:48;4.22;;;2.80;;
42700;SDS011;28316;49.504;8.526;2023-06-10T02:27:15;3.85;;;2.50;;
42700;SDS011;28316;49.504;8.526;2023-06-10T02:29:41;3.92;;;2.58;;
42700;SDS011;28316;49.504;8.526;2023-06-10T02:32:08;4.18;;;2.15;;
42700;SDS011;28316;49.504;8.526;2023-06-10T02:34:34;5.40;;;3.08;;
42700;SDS011;28316;49.504;8.526;2023-06-10T02:37:01;4.88;;;2.50;;
42700;SDS011;28316;49.504;8.526;2023-06-10T02:39:27;5.63;;;2.97;;
42700;SDS011;28316;49.504;8.526;2023-06-10T02:41:53;6.75;;;3.05;;
42700;SDS011;28316;49.504;8.526;2023-06-10T02:44:19;4.22;;;2.78;;
42700;SDS011;28316;49.504;8.526;2023-06-10T02:46:45;4.50;;;2.90;;
42700;SDS011;28316;49.504;8.526;2023-06-10T02:49:11;5.00;;;3.13;;
42700;SDS011;28316;49.504;8.526;2023-06-10T02:51:38;7.55;;;3.15;;
42700;SDS011;28316;49.504;8.526;2023-06-10T02:54:04;4.03;;;2.17;;
42700;SDS011;28316;49.504;8.526;2023-06-10T02:56:29;5.35;;;2.88;;
42700;SDS011;28316;49.504;8.526;2023-06-10T02:58:56;6.13;;;3.28;;
42700;SDS011;28316;49.504;8.526;2023-06-10T03:01:23;4.53;;;2.67;;
42700;SDS011;28316;49.504;8.526;2023-06-10T03:03:48;5.55;;;3.05;;
42700;SDS011;28316;49.504;8.526;2023-06-10T03:06:15;5.07;;;2.80;;
42700;SDS011;28316;49.504;8.526;2023-06-10T03:08:41;4.15;;;2.83;;
42700;SDS011;28316;49.504;8.526;2023-06-10T03:11:07;5.13;;;2.85;;
42700;SDS011;28316;49.504;8.526;2023-06-10T03:13:33;4.95;;;3.25;;
42700;SDS011;28316;49.504;8.526;2023-06-10T03:15:59;4.97;;;2.97;;
42700;SDS011;28316;49.504;8.526;2023-06-10T03:18:25;4.63;;;3.45;;
42700;SDS011;28316;49.504;8.526;2023-06-10T03:20:52;5.68;;;3.38;;
42700;SDS011;28316;49.504;8.526;2023-06-10T03:23:20;5.22;;;3.05;;
42700;SDS011;28316;49.504;8.526;2023-06-10T03:25:46;6.65;;;3.13;;
42700;SDS011;28316;49.504;8.526;2023-06-10T03:28:11;6.60;;;3.70;;
42700;SDS011;28316;49.504;8.526;2023-06-10T03:30:37;4.60;;;3.30;;
42700;SDS011;28316;49.504;8.526;2023-06-10T03:33:03;6.68;;;3.63;;
42700;SDS011;28316;49.504;8.526;2023-06-10T03:35:29;6.65;;;3.88;;
42700;SDS011;28316;49.504;8.526;2023-06-10T03:37:55;5.97;;;3.38;;
42700;SDS011;28316;49.504;8.526;2023-06-10T03:40:20;7.97;;;3.60;;
42700;SDS011;28316;49.504;8.526;2023-06-10T03:42:46;6.22;;;3.80;;
42700;SDS011;28316;49.504;8.526;2023-06-10T03:45:12;6.35;;;4.05;;
42700;SDS011;28316;49.504;8.526;2023-06-10T03:47:38;6.30;;;4.07;;
42700;SDS011;28316;49.504;8.526;2023-06-10T03:50:06;7.28;;;4.22;;
42700;SDS011;28316;49.504;8.526;2023-06-10T03:52:47;6.43;;;3.90;;
42700;SDS011;28316;49.504;8.526;2023-06-10T03:55:12;10.20;;;3.72;;
42700;SDS011;28316;49.504;8.526;2023-06-10T03:57:38;5.57;;;3.78;;
42700;SDS011;28316;49.504;8.526;2023-06-10T04:00:05;6.72;;;3.78;;
42700;SDS011;28316;49.504;8.526;2023-06-10T04:05:01;6.28;;;3.95;;
42700;SDS011;28316;49.504;8.526;2023-06-10T04:07:27;12.32;;;4.28;;
42700;SDS011;28316;49.504;8.526;2023-06-10T04:09:53;6.88;;;4.45;;
42700;SDS011;28316;49.504;8.526;2023-06-10T04:12:19;7.13;;;4.55;;
42700;SDS011;28316;49.504;8.526;2023-06-10T04:14:44;5.57;;;3.53;;
42700;SDS011;28316;49.504;8.526;2023-06-10T04:17:10;15.43;;;4.90;;
42700;SDS011;28316;49.504;8.526;2023-06-10T04:19:36;5.80;;;3.80;;
42700;SDS011;28316;49.504;8.526;2023-06-10T04:22:02;7.35;;;4.47;;
42700;SDS011;28316;49.504;8.526;2023-06-10T04:24:28;6.25;;;4.13;;
42700;SDS011;28316;49.504;8.526;2023-06-10T04:26:54;8.15;;;4.65;;
42700;SDS011;28316;49.504;8.526;2023-06-10T04:29:20;6.68;;;3.95;;
42700;SDS011;28316;49.504;8.526;2023-06-10T04:31:46;6.18;;;4.32;;
42700;SDS011;28316;49.504;8.526;2023-06-10T04:34:12;9.13;;;4.13;;
42700;SDS011;28316;49.504;8.526;2023-06-10T04:36:38;8.38;;;4.03;;
42700;SDS011;28316;49.504;8.526;2023-06-10T04:39:04;8.55;;;4.22;;
42700;SDS011;28316;49.504;8.526;2023-06-10T04:41:30;7.82;;;4.35;;
42700;SDS011;28316;49.504;8.526;2023-06-10T04:43:56;5.65;;;3.92;;
42700;SDS011;28316;49.504;8.526;2023-06-10T04:46:23;6.40;;;4.20;;
42700;SDS011;28316;49.504;8.526;2023-06-10T04:48:49;6.25;;;3.70;;
42700;SDS011;28316;49.504;8.526;2023-06-10T04:51:15;6.97;;;4.18;;
42700;SDS011;28316;49.504;8.526;2023-06-10T04:53:41;8.75;;;4.35;;
42700;SDS011;28316;49.504;8.526;2023-06-10T04:56:07;7.57;;;4.72;;
42700;SDS011;28316;49.504;8.526;2023-06-10T04:58:33;5.90;;;3.70;;
42700;SDS011;28316;49.504;8.526;2023-06-10T05:00:59;5.65;;;3.85;;
42700;SDS011;28316;49.504;8.526;2023-06-10T05:03:26;7.78;;;3.63;;
42700;SDS011;28316;49.504;8.526;2023-06-10T05:05:52;6.20;;;3.70;;
42700;SDS011;28316;49.504;8.526;2023-06-10T05:08:18;6.90;;;3.75;;
42700;SDS011;28316;49.504;8.526;2023-06-10T05:10:43;7.15;;;3.90;;
42700;SDS011;28316;49.504;8.526;2023-06-10T05:13:09;8.32;;;4.13;;
42700;SDS011;28316;49.504;8.526;2023-06-10T05:15:35;7.05;;;3.80;;
42700;SDS011;28316;49.504;8.526;2023-06-10T05:18:02;6.82;;;4.43;;
42700;SDS011;28316;49.504;8.526;2023-06-10T05:20:27;6.28;;;3.53;;
42700;SDS011;28316;49.504;8.526;2023-06-10T05:22:54;7.15;;;4.00;;
42700;SDS011;28316;49.504;8.526;2023-06-10T05:25:20;5.93;;;4.00;;
42700;SDS011;28316;49.504;8.526;2023-06-10T05:27:46;6.78;;;3.50;;
42700;SDS011;28316;49.504;8.526;2023-06-10T05:30:12;7.43;;;4.38;;
42700;SDS011;28316;49.504;8.526;2023-06-10T05:32:38;8.98;;;4.40;;
42700;SDS011;28316;49.504;8.526;2023-06-10T05:35:03;5.78;;;3.97;;
42700;SDS011;28316;49.504;8.526;2023-06-10T05:37:29;6.65;;;4.13;;
42700;SDS011;28316;49.504;8.526;2023-06-10T05:39:55;7.32;;;4.38;;
42700;SDS011;28316;49.504;8.526;2023-06-10T05:42:21;7.30;;;3.97;;
42700;SDS011;28316;49.504;8.526;2023-06-10T05:44:47;7.30;;;4.35;;
42700;SDS011;28316;49.504;8.526;2023-06-10T05:47:12;8.45;;;3.70;;
42700;SDS011;28316;49.504;8.526;2023-06-10T05:49:38;6.07;;;4.00;;
42700;SDS011;28316;49.504;8.526;2023-06-10T05:52:04;9.90;;;4.05;;
42700;SDS011;28316;49.504;8.526;2023-06-10T05:54:30;5.32;;;3.60;;
42700;SDS011;28316;49.504;8.526;2023-06-10T05:56:56;7.78;;;3.97;;
42700;SDS011;28316;49.504;8.526;2023-06-10T05:59:22;9.63;;;4.57;;
42700;SDS011;28316;49.504;8.526;2023-06-10T06:01:48;7.20;;;4.28;;
42700;SDS011;28316;49.504;8.526;2023-06-10T06:04:15;6.72;;;3.78;;
42700;SDS011;28316;49.504;8.526;2023-06-10T06:06:41;7.85;;;3.97;;
42700;SDS011;28316;49.504;8.526;2023-06-10T06:09:07;7.78;;;3.95;;
42700;SDS011;28316;49.504;8.526;2023-06-10T06:11:33;5.70;;;3.50;;
42700;SDS011;28316;49.504;8.526;2023-06-10T06:14:00;9.57;;;4.13;;
42700;SDS011;28316;49.504;8.526;2023-06-10T06:16:25;6.65;;;4.07;;
42700;SDS011;28316;49.504;8.526;2023-06-10T06:18:51;6.38;;;3.97;;
42700;SDS011;28316;49.504;8.526;2023-06-10T06:21:17;6.47;;;3.78;;
42700;SDS011;28316;49.504;8.526;2023-06-10T06:23:42;5.32;;;3.50;;
42700;SDS011;28316;49.504;8.526;2023-06-10T06:26:08;6.57;;;3.53;;
42700;SDS011;28316;49.504;8.526;2023-06-10T06:28:34;5.05;;;3.20;;
42700;SDS011;28316;49.504;8.526;2023-06-10T06:31:00;6.60;;;3.20;;
42700;SDS011;28316;49.504;8.526;2023-06-10T06:33:26;6.10;;;2.70;;
42700;SDS011;28316;49.504;8.526;2023-06-10T06:35:52;4.95;;;2.90;;
42700;SDS011;28316;49.504;8.526;2023-06-10T06:38:17;9.98;;;3.20;;
42700;SDS011;28316;49.504;8.526;2023-06-10T06:40:43;3.97;;;2.75;;
42700;SDS011;28316;49.504;8.526;2023-06-10T06:43:09;4.43;;;2.75;;
42700;SDS011;28316;49.504;8.526;2023-06-10T06:45:35;7.13;;;3.15;;
42700;SDS011;28316;49.504;8.526;2023-06-10T06:48:00;5.97;;;2.53;;
42700;SDS011;28316;49.504;8.526;2023-06-10T06:50:27;4.05;;;2.30;;
42700;SDS011;28316;49.504;8.526;2023-06-10T06:52:53;3.92;;;2.55;;
42700;SDS011;28316;49.504;8.526;2023-06-10T06:55:18;4.18;;;2.47;;
42700;SDS011;28316;49.504;8.526;2023-06-10T06:57:44;4.07;;;2.30;;
42700;SDS011;28316;49.504;8.526;2023-06-10T07:00:10;5.20;;;2.53;;
42700;SDS011;28316;49.504;8.526;2023-06-10T07:02:36;5.43;;;2.45;;
42700;SDS011;28316;49.504;8.526;2023-06-10T07:05:02;4.75;;;2.28;;
42700;SDS011;28316;49.504;8.526;2023-06-10T07:07:28;4.40;;;2.55;;
42700;SDS011;28316;49.504;8.526;2023-06-10T07:09:54;3.92;;;2.40;;
42700;SDS011;28316;49.504;8.526;2023-06-10T07:12:20;3.30;;;2.05;;
42700;SDS011;28316;49.504;8.526;2023-06-10T07:14:48;9.05;;;2.63;;
42700;SDS011;28316;49.504;8.526;2023-06-10T07:17:16;5.93;;;2.53;;
42700;SDS011;28316;49.504;8.526;2023-06-10T07:19:43;3.70;;;1.58;;
42700;SDS011;28316;49.504;8.526;2023-06-10T07:22:10;3.25;;;1.90;;
42700;SDS011;28316;49.504;8.526;2023-06-10T07:24:35;3.67;;;1.75;;
42700;SDS011;28316;49.504;8.526;2023-06-10T07:27:01;4.22;;;2.30;;
42700;SDS011;28316;49.504;8.526;2023-06-10T07:29:27;5.13;;;2.40;;
42700;SDS011;28316;49.504;8.526;2023-06-10T07:31:53;2.95;;;1.90;;
42700;SDS011;28316;49.504;8.526;2023-06-10T07:34:19;2.97;;;1.83;;
42700;SDS011;28316;49.504;8.526;2023-06-10T07:36:44;3.47;;;2.35;;
42700;SDS011;28316;49.504;8.526;2023-06-10T07:39:10;3.17;;;1.75;;
42700;SDS011;28316;49.504;8.526;2023-06-10T07:41:36;3.08;;;1.80;;
42700;SDS011;28316;49.504;8.526;2023-06-10T07:44:02;3.55;;;1.98;;
42700;SDS011;28316;49.504;8.526;2023-06-10T07:46:27;3.60;;;2.03;;
42700;SDS011;28316;49.504;8.526;2023-06-10T07:48:53;6.72;;;2.15;;
42700;SDS011;28316;49.504;8.526;2023-06-10T07:51:20;3.47;;;1.80;;
42700;SDS011;28316;49.504;8.526;2023-06-10T07:53:46;4.25;;;2.13;;
42700;SDS011;28316;49.504;8.526;2023-06-10T07:56:12;4.53;;;2.38;;
42700;SDS011;28316;49.504;8.526;2023-06-10T07:58:38;4.00;;;2.20;;
42700;SDS011;28316;49.504;8.526;2023-06-10T08:01:04;7.53;;;2.25;;
42700;SDS011;28316;49.504;8.526;2023-06-10T08:03:30;3.88;;;2.63;;
42700;SDS011;28316;49.504;8.526;2023-06-10T08:05:56;4.60;;;2.10;;
42700;SDS011;28316;49.504;8.526;2023-06-10T08:08:21;3.05;;;2.03;;
42700;SDS011;28316;49.504;8.526;2023-06-10T08:10:47;3.53;;;1.92;;
42700;SDS011;28316;49.504;8.526;2023-06-10T08:13:14;6.38;;;2.35;;
42700;SDS011;28316;49.504;8.526;2023-06-10T08:15:40;4.28;;;2.13;;
42700;SDS011;28316;49.504;8.526;2023-06-10T08:18:05;3.15;;;1.80;;
42700;SDS011;28316;49.504;8.526;2023-06-10T08:20:31;6.63;;;2.38;;
42700;SDS011;28316;49.504;8.526;2023-06-10T08:22:57;5.40;;;2.47;;
42700;SDS011;28316;49.504;8.526;2023-06-10T08:25:23;3.53;;;1.95;;
42700;SDS011;28316;49.504;8.526;2023-06-10T08:27:49;3.47;;;1.88;;
42700;SDS011;28316;49.504;8.526;2023-06-10T08:30:15;3.30;;;1.98;;
42700;SDS011;28316;49.504;8.526;2023-06-10T08:32:41;3.45;;;2.22;;
42700;SDS011;28316;49.504;8.526;2023-06-10T08:35:07;4.97;;;2.63;;
42700;SDS011;28316;49.504;8.526;2023-06-10T08:37:33;3.35;;;2.17;;
42700;SDS011;28316;49.504;8.526;2023-06-10T08:39:59;3.33;;;2.03;;
42700;SDS011;28316;49.504;8.526;2023-06-10T08:42:28;4.10;;;2.35;;
42700;SDS011;28316;49.504;8.526;2023-06-10T08:45:04;7.38;;;2.67;;
42700;SDS011;28316;49.504;8.526;2023-06-10T08:47:32;3.40;;;2.10;;
42700;SDS011;28316;49.504;8.526;2023-06-10T08:50:03;4.47;;;2.20;;
42700;SDS011;28316;49.504;8.526;2023-06-10T08:52:34;4.25;;;2.00;;
42700;SDS011;28316;49.504;8.526;2023-06-10T08:55:15;5.70;;;1.90;;
42700;SDS011;28316;49.504;8.526;2023-06-10T08:58:01;3.72;;;2.35;;
42700;SDS011;28316;49.504;8.526;2023-06-10T09:00:28;5.67;;;2.20;;
42700;SDS011;28316;49.504;8.526;2023-06-10T09:02:56;3.63;;;2.03;;
42700;SDS011;28316;49.504;8.526;2023-06-10T09:05:23;4.57;;;2.03;;
42700;SDS011;28316;49.504;8.526;2023-06-10T09:07:50;3.05;;;1.90;;
42700;SDS011;28316;49.504;8.526;2023-06-10T09:10:17;3.88;;;2.15;;
42700;SDS011;28316;49.504;8.526;2023-06-10T09:12:43;4.78;;;2.08;;
42700;SDS011;28316;49.504;8.526;2023-06-10T09:15:10;3.75;;;2.40;;
42700;SDS011;28316;49.504;8.526;2023-06-10T09:17:37;6.97;;;2.20;;
42700;SDS011;28316;49.504;8.526;2023-06-10T09:20:06;4.43;;;1.95;;
42700;SDS011;28316;49.504;8.526;2023-06-10T09:22:33;3.65;;;2.25;;
42700;SDS011;28316;49.504;8.526;2023-06-10T09:27:43;5.15;;;2.38;;
42700;SDS011;28316;49.504;8.526;2023-06-10T09:32:56;8.13;;;3.07;;
42700;SDS011;28316;49.504;8.526;2023-06-10T09:35:27;6.05;;;3.15;;
42700;SDS011;28316;49.504;8.526;2023-06-10T09:37:58;3.75;;;2.33;;
42700;SDS011;28316;49.504;8.526;2023-06-10T09:40:25;6.18;;;2.83;;
42700;SDS011;28316;49.504;8.526;2023-06-10T09:42:56;5.07;;;2.95;;
42700;SDS011;28316;49.504;8.526;2023-06-10T09:45:28;5.20;;;2.80;;
42700;SDS011;28316;49.504;8.526;2023-06-10T09:47:59;5.30;;;2.88;;
42700;SDS011;28316;49.504;8.526;2023-06-10T09:50:25;5.65;;;2.60;;
42700;SDS011;28316;49.504;8.526;2023-06-10T09:52:51;3.78;;;2.40;;
42700;SDS011;28316;49.504;8.526;2023-06-10T09:55:18;4.68;;;2.45;;
42700;SDS011;28316;49.504;8.526;2023-06-10T09:57:44;3.80;;;2.08;;
42700;SDS011;28316;49.504;8.526;2023-06-10T10:00:15;3.97;;;2.05;;
42700;SDS011;28316;49.504;8.526;2023-06-10T10:02:48;9.95;;;2.95;;
42700;SDS011;28316;49.504;8.526;2023-06-10T10:05:17;3.15;;;1.90;;
42700;SDS011;28316;49.504;8.526;2023-06-10T10:07:45;2.70;;;1.73;;
42700;SDS011;28316;49.504;8.526;2023-06-10T10:10:12;4.43;;;2.30;;
42700;SDS011;28316;49.504;8.526;2023-06-10T10:12:40;3.53;;;1.98;;
42700;SDS011;28316;49.504;8.526;2023-06-10T10:15:10;3.20;;;1.83;;
42700;SDS011;28316;49.504;8.526;2023-06-10T10:17:37;5.40;;;2.15;;
42700;SDS011;28316;49.504;8.526;2023-06-10T10:20:10;7.00;;;2.15;;
42700;SDS011;28316;49.504;8.526;2023-06-10T10:22:39;3.53;;;1.97;;
42700;SDS011;28316;49.504;8.526;2023-06-10T10:25:15;4.78;;;2.25;;
42700;SDS011;28316;49.504;8.526;2023-06-10T10:27:48;2.90;;;2.10;;
42700;SDS011;28316;49.504;8.526;2023-06-10T10:30:33;4.30;;;1.45;;
42700;SDS011;28316;49.504;8.526;2023-06-10T10:33:13;9.45;;;1.92;;
42700;SDS011;28316;49.504;8.526;2023-06-10T10:35:44;6.05;;;1.60;;
42700;SDS011;28316;49.504;8.526;2023-06-10T10:38:11;3.17;;;1.85;;
42700;SDS011;28316;49.504;8.526;2023-06-10T10:40:37;3.13;;;1.52;;
42700;SDS011;28316;49.504;8.526;2023-06-10T10:43:05;6.18;;;1.58;;
42700;SDS011;28316;49.504;8.526;2023-06-10T10:45:33;3.15;;;1.80;;
42700;SDS011;28316;49.504;8.526;2023-06-10T10:48:01;4.10;;;2.33;;
42700;SDS011;28316;49.504;8.526;2023-06-10T10:50:36;2.60;;;1.50;;
42700;SDS011;28316;49.504;8.526;2023-06-10T10:53:04;3.08;;;1.80;;
42700;SDS011;28316;49.504;8.526;2023-06-10T10:55:31;5.63;;;2.65;;
42700;SDS011;28316;49.504;8.526;2023-06-10T10:58:07;2.58;;;1.65;;
42700;SDS011;28316;49.504;8.526;2023-06-10T11:00:35;3.55;;;1.83;;
42700;SDS011;28316;49.504;8.526;2023-06-10T11:05:35;3.47;;;1.75;;
42700;SDS011;28316;49.504;8.526;2023-06-10T11:08:04;3.22;;;1.98;;
42700;SDS011;28316;49.504;8.526;2023-06-10T11:12:59;2.40;;;1.55;;
42700;SDS011;28316;49.504;8.526;2023-06-10T11:15:30;3.78;;;1.83;;
42700;SDS011;28316;49.504;8.526;2023-06-10T11:18:18;5.03;;;1.85;;
42700;SDS011;28316;49.504;8.526;2023-06-10T11:20:56;3.20;;;1.60;;
42700;SDS011;28316;49.504;8.526;2023-06-10T11:29:05;14.27;;;3.10;;
42700;SDS011;28316;49.504;8.526;2023-06-10T11:31:40;4.25;;;1.48;;
42700;SDS011;28316;49.504;8.526;2023-06-10T11:34:11;2.78;;;1.50;;
42700;SDS011;28316;49.504;8.526;2023-06-10T11:36:39;2.35;;;1.30;;
42700;SDS011;28316;49.504;8.526;2023-06-10T11:39:08;3.70;;;1.40;;
42700;SDS011;28316;49.504;8.526;2023-06-10T11:41:36;2.08;;;1.30;;
42700;SDS011;28316;49.504;8.526;2023-06-10T11:44:09;1.58;;;1.05;;
42700;SDS011;28316;49.504;8.526;2023-06-10T11:46:36;3.40;;;1.40;;
42700;SDS011;28316;49.504;8.526;2023-06-10T11:49:03;3.03;;;1.42;;
42700;SDS011;28316;49.504;8.526;2023-06-10T11:51:39;3.30;;;1.60;;
42700;SDS011;28316;49.504;8.526;2023-06-10T11:54:13;2.28;;;1.50;;
42700;SDS011;28316;49.504;8.526;2023-06-10T11:56:40;3.80;;;1.38;;
42700;SDS011;28316;49.504;8.526;2023-06-10T11:59:06;2.38;;;1.33;;
42700;SDS011;28316;49.504;8.526;2023-06-10T12:01:36;2.67;;;1.73;;
42700;SDS011;28316;49.504;8.526;2023-06-10T12:04:08;2.33;;;1.48;;
42700;SDS011;28316;49.504;8.526;2023-06-10T12:06:39;2.42;;;1.50;;
42700;SDS011;28316;49.504;8.526;2023-06-10T12:09:16;2.08;;;1.38;;
42700;SDS011;28316;49.504;8.526;2023-06-10T12:12:02;3.40;;;1.40;;
42700;SDS011;28316;49.504;8.526;2023-06-10T12:19:57;2.53;;;1.50;;
42700;SDS011;28316;49.504;8.526;2023-06-10T12:22:23;3.13;;;1.40;;
42700;SDS011;28316;49.504;8.526;2023-06-10T12:25:02;5.65;;;1.40;;
42700;SDS011;28316;49.504;8.526;2023-06-10T12:27:31;3.58;;;1.55;;
42700;SDS011;28316;49.504;8.526;2023-06-10T12:30:02;3.13;;;2.08;;
42700;SDS011;28316;49.504;8.526;2023-06-10T12:35:24;3.30;;;1.65;;
42700;SDS011;28316;49.504;8.526;2023-06-10T12:37:59;3.13;;;1.90;;
42700;SDS011;28316;49.504;8.526;2023-06-10T12:49:54;2.70;;;1.65;;
42700;SDS011;28316;49.504;8.526;2023-06-10T12:52:21;3.80;;;1.77;;
42700;SDS011;28316;49.504;8.526;2023-06-10T12:54:47;1.85;;;1.20;;
42700;SDS011;28316;49.504;8.526;2023-06-10T12:57:12;2.88;;;1.63;;
42700;SDS011;28316;49.504;8.526;2023-06-10T12:59:38;2.58;;;1.63;;
42700;SDS011;28316;49.504;8.526;2023-06-10T13:02:05;3.78;;;1.58;;
42700;SDS011;28316;49.504;8.526;2023-06-10T13:04:31;4.40;;;1.83;;
42700;SDS011;28316;49.504;8.526;2023-06-10T13:06:56;2.63;;;1.20;;
42700;SDS011;28316;49.504;8.526;2023-06-10T13:09:24;1.67;;;1.15;;
42700;SDS011;28316;49.504;8.526;2023-06-10T13:11:49;3.13;;;1.60;;
42700;SDS011;28316;49.504;8.526;2023-06-10T13:14:16;1.60;;;1.30;;
42700;SDS011;28316;49.504;8.526;2023-06-10T13:16:41;3.00;;;1.35;;
42700;SDS011;28316;49.504;8.526;2023-06-10T13:19:09;5.68;;;1.60;;
42700;SDS011;28316;49.504;8.526;2023-06-10T13:21:36;3.58;;;1.58;;
42700;SDS011;28316;49.504;8.526;2023-06-10T13:24:02;3.20;;;1.42;;
42700;SDS011;28316;49.504;8.526;2023-06-10T13:26:28;2.80;;;1.55;;
42700;SDS011;28316;49.504;8.526;2023-06-10T13:28:54;1.85;;;1.20;;
42700;SDS011;28316;49.504;8.526;2023-06-10T13:31:19;3.25;;;1.75;;
42700;SDS011;28316;49.504;8.526;2023-06-10T13:33:46;3.17;;;1.50;;
42700;SDS011;28316;49.504;8.526;2023-06-10T13:36:12;2.42;;;1.55;;
42700;SDS011;28316;49.504;8.526;2023-06-10T13:38:38;1.35;;;0.95;;
42700;SDS011;28316;49.504;8.526;2023-06-10T13:41:03;2.55;;;1.30;;
42700;SDS011;28316;49.504;8.526;2023-06-10T13:43:29;2.60;;;1.50;;
42700;SDS011;28316;49.504;8.526;2023-06-10T13:45:55;4.68;;;1.20;;
42700;SDS011;28316;49.504;8.526;2023-06-10T13:48:21;2.75;;;1.20;;
42700;SDS011;28316;49.504;8.526;2023-06-10T13:50:46;2.30;;;1.23;;
42700;SDS011;28316;49.504;8.526;2023-06-10T13:53:12;1.90;;;1.33;;
42700;SDS011;28316;49.504;8.526;2023-06-10T13:55:38;2.58;;;1.42;;
42700;SDS011;28316;49.504;8.526;2023-06-10T13:58:04;2.30;;;1.50;;
42700;SDS011;28316;49.504;8.526;2023-06-10T14:00:30;1.55;;;0.85;;
42700;SDS011;28316;49.504;8.526;2023-06-10T14:02:56;4.43;;;1.40;;
42700;SDS011;28316;49.504;8.526;2023-06-10T14:05:22;1.92;;;1.25;;
42700;SDS011;28316;49.504;8.526;2023-06-10T14:07:48;3.55;;;1.70;;
42700;SDS011;28316;49.504;8.526;2023-06-10T14:10:14;2.00;;;1.23;;
42700;SDS011;28316;49.504;8.526;2023-06-10T14:12:39;1.70;;;1.20;;
42700;SDS011;28316;49.504;8.526;2023-06-10T14:15:05;3.63;;;1.63;;
42700;SDS011;28316;49.504;8.526;2023-06-10T14:17:32;3.15;;;1.70;;
42700;SDS011;28316;49.504;8.526;2023-06-10T14:19:57;2.88;;;1.40;;
42700;SDS011;28316;49.504;8.526;2023-06-10T14:22:23;2.92;;;1.55;;
42700;SDS011;28316;49.504;8.526;2023-06-10T14:24:49;1.60;;;0.90;;
42700;SDS011;28316;49.504;8.526;2023-06-10T14:27:14;2.03;;;1.30;;
42700;SDS011;28316;49.504;8.526;2023-06-10T14:29:40;2.00;;;1.27;;
42700;SDS011;28316;49.504;8.526;2023-06-10T14:32:06;3.25;;;1.17;;
42700;SDS011;28316;49.504;8.526;2023-06-10T14:34:32;1.95;;;1.15;;
42700;SDS011;28316;49.504;8.526;2023-06-10T14:36:59;4.93;;;1.40;;
42700;SDS011;28316;49.504;8.526;2023-06-10T14:39:25;2.80;;;1.02;;
42700;SDS011;28316;49.504;8.526;2023-06-10T14:41:51;3.53;;;1.55;;
42700;SDS011;28316;49.504;8.526;2023-06-10T14:44:19;1.60;;;0.95;;
42700;SDS011;28316;49.504;8.526;2023-06-10T14:46:45;1.25;;;1.00;;
42700;SDS011;28316;49.504;8.526;2023-06-10T14:49:11;2.67;;;1.10;;
42700;SDS011;28316;49.504;8.526;2023-06-10T14:51:36;1.60;;;1.00;;
42700;SDS011;28316;49.504;8.526;2023-06-10T14:54:02;2.63;;;1.38;;
42700;SDS011;28316;49.504;8.526;2023-06-10T14:56:28;4.85;;;1.63;;
42700;SDS011;28316;49.504;8.526;2023-06-10T14:58:54;1.60;;;1.08;;
42700;SDS011;28316;49.504;8.526;2023-06-10T15:01:20;1.42;;;0.98;;
42700;SDS011;28316;49.504;8.526;2023-06-10T15:03:45;4.03;;;1.25;;
42700;SDS011;28316;49.504;8.526;2023-06-10T15:06:11;2.72;;;1.08;;
42700;SDS011;28316;49.504;8.526;2023-06-10T15:08:37;1.73;;;0.93;;
42700;SDS011;28316;49.504;8.526;2023-06-10T15:11:02;2.30;;;1.17;;
42700;SDS011;28316;49.504;8.526;2023-06-10T15:13:28;1.27;;;1.00;;
42700;SDS011;28316;49.504;8.526;2023-06-10T15:15:54;2.10;;;1.13;;
42700;SDS011;28316;49.504;8.526;2023-06-10T15:18:20;1.92;;;1.10;;
42700;SDS011;28316;49.504;8.526;2023-06-10T15:20:46;2.88;;;1.35;;
42700;SDS011;28316;49.504;8.526;2023-06-10T15:23:12;1.55;;;1.13;;
42700;SDS011;28316;49.504;8.526;2023-06-10T15:25:37;3.08;;;1.38;;
42700;SDS011;28316;49.504;8.526;2023-06-10T15:28:05;1.63;;;1.10;;